Latest Weather Observations for Burnie Port

IDT60801

Issued at 12:35 pm EDT Sunday 26 October 2014 (issued every 30 minutes, with the page automatically refreshed every 10 minutes)

About weather observations | Map of weather stations | Latest weather observations for TAS | Other Formats
Station Details ID: 091344 Name: BURNIE NTC AWS Lat: -41.05 Lon: 145.91 Height: 0.0 m
Data from the previous 72 hours. | See also: Recent months for locations in Tasmania
Date/Time
EDT
Temp
°C
App
Temp
°C
Dew
Point
Rel
Hum
%
Delta-T
°C
Wind Press
QNH
hPa
Press
MSL
hPa
Rain
since 9 am
mm
Dir
 
Spd
km/h
Gust
km/h
Spd
kts
Gust
kts
26/12:30pm 14.1 - - - - ESE 4 6 2 3 1012.6 1012.6 -
26/12:00pm 13.6 - - - - SE 4 6 2 3 1012.8 1012.8 -
26/11:30am 13.6 - - - - ESE 2 6 1 3 1012.9 1012.9 -
26/11:00am 13.2 - - - - CALM 0 4 0 2 1013.0 1013.0 -
26/10:30am 12.6 - - - - N 11 15 6 8 1013.1 1013.1 -
26/10:00am 13.0 - - - - ENE 7 13 4 7 1013.0 1013.0 -
26/09:30am 13.4 - - - - E 9 15 5 8 1012.7 1012.7 -
26/09:00am 13.4 - - - - ESE 11 13 6 7 1012.9 1012.9 -
26/08:30am 13.5 - - - - ESE 6 9 3 5 1013.0 1013.0 -
26/08:00am 13.4 - - - - ESE 4 6 2 3 1013.0 1013.0 -
26/07:30am 13.4 - - - - S 6 9 3 5 1012.8 1012.8 -
26/07:00am 13.3 - - - - SE 7 9 4 5 1012.5 1012.5 -
26/06:30am 13.3 - - - - SE 9 13 5 7 1012.5 1012.5 -
26/06:00am 13.4 - - - - ESE 11 13 6 7 1012.3 1012.3 -
26/05:30am 13.5 - - - - E 11 15 6 8 1012.3 1012.3 -
26/05:00am 13.6 - - - - ESE 7 11 4 6 1012.4 1012.4 -
26/04:30am 13.6 - - - - ESE 7 9 4 5 1012.7 1012.7 -
26/04:00am 13.7 - - - - ENE 6 9 3 5 1012.9 1012.9 -
26/03:30am 13.6 - - - - E 7 9 4 5 1013.1 1013.1 -
26/03:00am 13.6 - - - - E 9 11 5 6 1013.3 1013.3 -
26/02:30am 13.6 - - - - E 15 19 8 10 1013.3 1013.3 -
26/02:00am 13.8 - - - - E 15 20 8 11 1013.6 1013.6 -
26/01:30am 14.0 - - - - E 13 19 7 10 1014.3 1014.3 -
26/01:00am 14.1 - - - - ESE 11 13 6 7 1015.2 1015.2 -
26/12:30am 14.0 - - - - ESE 11 15 6 8 1015.3 1015.3 -
26/12:00am 14.0 - - - - E 11 15 6 8 1015.6 1015.6 -
 
Date/Time
EDT
Temp
°C
App
Temp
°C
Dew
Point
Rel
Hum
%
Delta-T
°C
Wind Press
QNH
hPa
Press
MSL
hPa
Rain
since 9 am
mm
Dir
 
Spd
km/h
Gust
km/h
Spd
kts
Gust
kts
25/11:30pm 13.9 - - - - E 13 19 7 10 1015.7 1015.7 -
25/11:00pm 14.0 - - - - E 19 24 10 13 1015.7 1015.7 -
25/10:30pm 14.1 - - - - E 17 22 9 12 1016.1 1016.1 -
25/10:00pm 14.1 - - - - E 17 22 9 12 1016.0 1016.0 -
25/09:30pm 14.2 - - - - E 20 24 11 13 1015.9 1015.9 -
25/09:00pm 14.2 - - - - ESE 22 24 12 13 1015.9 1015.9 -
25/08:30pm 14.3 - - - - E 19 24 10 13 1015.9 1015.9 -
25/08:00pm 14.5 - - - - E 22 26 12 14 1015.4 1015.4 -
25/07:30pm 14.7 - - - - ESE 24 30 13 16 1015.4 1015.4 -
25/07:00pm 15.0 - - - - ESE 26 30 14 16 1014.7 1014.7 -
25/06:30pm 15.2 - - - - ESE 28 32 15 17 1014.1 1014.1 -
25/06:00pm 15.4 - - - - ESE 26 30 14 16 1013.7 1013.7 -
25/05:30pm 15.5 - - - - E 20 24 11 13 1013.3 1013.3 -
25/05:00pm 15.6 - - - - E 15 19 8 10 1013.4 1013.4 -
25/04:30pm 16.0 - - - - E 13 19 7 10 1013.5 1013.5 -
25/04:00pm 16.7 - - - - E 9 15 5 8 1013.6 1013.6 -
25/03:30pm 16.6 - - - - NNW 7 9 4 5 1013.8 1013.8 -
25/03:00pm 16.9 - - - - NNW 6 7 3 4 1013.7 1013.7 -
25/02:30pm 16.9 - - - - NNW 6 7 3 4 1013.9 1013.9 -
25/02:00pm 17.2 - - - - N 4 6 2 3 1013.7 1013.7 -
25/01:30pm 17.0 - - - - NNE 13 13 7 7 1013.8 1013.8 -
25/01:00pm 17.1 - - - - NNE 11 13 6 7 1013.9 1013.9 -
25/12:30pm 17.4 - - - - NNE 15 15 8 8 1014.1 1014.1 -
25/12:00pm 17.5 - - - - NE 13 15 7 8 1014.5 1014.5 -
25/11:30am 17.8 - - - - NE 9 13 5 7 1014.5 1014.5 -
25/11:00am 18.1 - - - - E 6 9 3 5 1014.3 1014.3 -
25/10:30am 18.1 - - - - S 9 15 5 8 1014.4 1014.4 -
25/10:00am 17.7 - - - - SSW 11 17 6 9 1014.6 1014.6 -
25/09:30am 17.1 - - - - WSW 11 19 6 10 1014.5 1014.5 -
25/09:00am 16.4 - - - - WSW 15 22 8 12 1014.4 1014.4 -
25/08:30am 15.7 - - - - SW 9 20 5 11 1014.1 1014.1 -
25/08:00am 15.1 - - - - SW 9 17 5 9 1013.8 1013.8 -
25/07:30am 14.5 - - - - WSW 9 17 5 9 1013.6 1013.6 -
25/07:00am 13.7 - - - - W 19 22 10 12 1013.5 1013.5 -
25/06:30am 13.7 - - - - W 13 20 7 11 1013.2 1013.2 -
25/06:00am 13.0 - - - - WNW 13 19 7 10 1012.7 1012.7 -
25/05:30am 13.7 - - - - W 13 19 7 10 1012.1 1012.1 -
25/05:00am 13.4 - - - - WNW 9 17 5 9 1012.0 1012.0 -
25/04:30am 13.4 - - - - WNW 11 17 6 9 1011.6 1011.6 -
25/04:00am 13.2 - - - - WNW 11 17 6 9 1011.5 1011.5 -
25/03:30am 13.2 - - - - WNW 9 13 5 7 1011.3 1011.3 -
25/03:00am 13.6 - - - - WNW 7 9 4 5 1011.3 1011.3 -
25/02:30am 14.0 - - - - WNW 9 13 5 7 1011.2 1011.2 -
25/02:00am 14.2 - - - - WNW 9 15 5 8 1011.2 1011.2 -
25/01:30am 14.4 - - - - WNW 9 15 5 8 1011.4 1011.4 -
25/01:00am 14.3 - - - - WNW 9 15 5 8 1011.4 1011.4 -
25/12:30am 14.9 - - - - WNW 9 15 5 8 1011.3 1011.3 -
25/12:00am 14.7 - - - - WNW 15 20 8 11 1010.9 1010.9 -
 
Date/Time
EDT
Temp
°C
App
Temp
°C
Dew
Point
Rel
Hum
%
Delta-T
°C
Wind Press
QNH
hPa
Press
MSL
hPa
Rain
since 9 am
mm
Dir
 
Spd
km/h
Gust
km/h
Spd
kts
Gust
kts
24/11:30pm 14.0 - - - - NW 15 19 8 10 1010.6 1010.6 -
24/11:00pm 13.9 - - - - NW 11 13 6 7 1011.0 1011.0 -
24/10:30pm 14.2 - - - - WNW 11 15 6 8 1010.7 1010.7 -
24/10:00pm 14.4 - - - - WNW 7 11 4 6 1010.6 1010.6 -
24/09:30pm 14.4 - - - - NNW 6 9 3 5 1010.7 1010.7 -
24/09:00pm 14.6 - - - - CALM 0 2 0 1 1010.4 1010.4 -
24/08:30pm 14.8 - - - - ENE 4 6 2 3 1010.4 1010.4 -
24/08:00pm 14.9 - - - - E 4 6 2 3 1010.5 1010.5 -
24/07:30pm 15.1 - - - - ESE 9 11 5 6 1010.3 1010.3 -
24/07:00pm 15.0 - - - - ESE 20 22 11 12 1009.4 1009.4 -
24/06:30pm 15.0 - - - - ESE 20 28 11 15 1009.6 1009.6 -
24/06:00pm 15.0 - - - - ESE 20 26 11 14 1009.7 1009.7 -
24/05:30pm 15.0 - - - - ESE 24 28 13 15 1009.9 1009.9 -
24/05:00pm 15.1 - - - - ESE 22 28 12 15 1010.1 1010.1 -
24/04:30pm 14.9 - - - - ESE 24 30 13 16 1010.1 1010.1 -
24/04:00pm 14.8 - - - - ESE 26 30 14 16 1010.4 1010.4 -
24/03:30pm 15.0 - - - - ESE 22 30 12 16 1011.4 1011.4 -
24/03:00pm 14.8 - - - - ESE 26 33 14 18 1011.4 1011.4 -
24/02:30pm 14.9 - - - - ESE 30 37 16 20 1012.1 1012.1 -
24/02:00pm 14.9 - - - - SE 33 44 18 24 1012.1 1012.1 -
24/01:30pm 14.6 - - - - SE 33 43 18 23 1012.6 1012.6 -
24/01:00pm 14.5 - - - - SE 35 46 19 25 1013.0 1013.0 -
24/12:30pm 14.4 - - - - SE 33 44 18 24 1013.4 1013.4 -
24/12:00pm 14.0 - - - - SE 33 44 18 24 1013.9 1013.9 -
24/11:30am 13.3 - - - - SE 32 46 17 25 1014.8 1014.8 -
24/11:00am 13.3 - - - - SE 35 48 19 26 1015.4 1015.4 -
24/10:30am 12.6 - - - - SE 32 43 17 23 1015.6 1015.6 -
24/10:00am 12.0 - - - - SE 28 41 15 22 1016.2 1016.2 -
24/09:30am 11.9 - - - - SE 30 46 16 25 1016.5 1016.5 -
24/09:00am 11.8 - - - - SE 32 43 17 23 1016.9 1016.9 -
24/08:30am 11.6 - - - - SE 33 43 18 23 1017.3 1017.3 -
24/08:00am 11.8 - - - - SE 35 46 19 25 1017.6 1017.6 -
24/07:30am 12.1 - - - - SE 39 50 21 27 1017.7 1017.7 -
24/07:00am 12.5 - - - - ESE 39 50 21 27 1018.1 1018.1 -
24/06:30am 12.7 - - - - SE 39 48 21 26 1018.3 1018.3 -
24/06:00am 12.8 - - - - SE 39 50 21 27 1018.4 1018.4 -
24/05:30am 12.8 - - - - SE 37 46 20 25 1018.5 1018.5 -
24/05:00am 12.7 - - - - SE 41 48 22 26 1018.6 1018.6 -
24/04:30am 12.7 - - - - SE 43 50 23 27 1018.6 1018.6 -
24/04:00am 12.7 - - - - SE 41 50 22 27 1019.1 1019.1 -
24/03:30am 12.4 - - - - ESE 41 50 22 27 1019.8 1019.8 -
24/03:00am 12.4 - - - - SE 41 50 22 27 1020.4 1020.4 -
24/02:30am 12.4 - - - - ESE 37 50 20 27 1020.8 1020.8 -
24/02:00am 12.6 - - - - ESE 39 48 21 26 1021.2 1021.2 -
24/01:30am 12.9 - - - - ESE 41 50 22 27 1021.8 1021.8 -
24/01:02am 13.1 - - - - E 32 50 17 27 1021.9 1021.9 -
24/01:00am 13.1 - - - - E 33 52 18 28 1022.0 1022.0 -
24/12:56am 13.1 - - - - E 32 52 17 28 1022.0 1022.0 -
24/12:30am 13.1 - - - - E 39 50 21 27 1022.3 1022.3 -
24/12:00am 13.0 - - - - E 39 50 21 27 1022.6 1022.6 -

Other Formats:

Comma delimited format used in spreadsheet applications
http://www.bom.gov.au/fwo/IDT60801/IDT60801.95963.axf

JavaScript Object Notation format (JSON) in row-major order
http://www.bom.gov.au/fwo/IDT60801/IDT60801.95963.json